Time;durP1;ratioP1;P1;durP2;ratioP2;P2;SDS_P1;SDS_P2;PMS_P1;PMS_P2;Temp;Humidity;BMP_temperature;BMP_pressure;BME280_temperature;BME280_humidity;BME280_pressure;Samples;Min_cycle;Max_cycle;Signal;HPM_P1;HPM_P2
2021/08/28 00:02:25;;;;;;;8.53;7.83;;;;;;;12.18;100.00;100530.03;5025386;28;20207;-75
2021/08/28 00:04:53;;;;;;;7.60;6.97;;;;;;;12.18;100.00;100535.28;5026331;28;20218;-76
2021/08/28 00:07:19;;;;;;;7.43;6.93;;;;;;;12.20;100.00;100543.09;5025964;28;20207;-77
2021/08/28 00:09:45;;;;;;;8.53;7.80;;;;;;;12.19;100.00;100546.59;5026230;28;20203;-77
2021/08/28 00:12:12;;;;;;;8.47;7.87;;;;;;;12.19;100.00;100542.25;5025280;28;20268;-74
2021/08/28 00:14:38;;;;;;;7.67;7.07;;;;;;;12.19;100.00;100544.88;5026174;28;20273;-77
2021/08/28 00:17:05;;;;;;;8.13;7.53;;;;;;;12.23;100.00;100550.84;5025779;28;20227;-77
2021/08/28 00:19:31;;;;;;;7.47;6.97;;;;;;;12.23;100.00;100553.47;5025557;28;20268;-74
2021/08/28 00:21:59;;;;;;;8.03;7.27;;;;;;;12.21;100.00;100555.28;5030239;28;20232;-76
2021/08/28 00:24:25;;;;;;;6.80;6.10;;;;;;;12.19;100.00;100560.56;5032849;28;20210;-76
2021/08/28 00:26:52;;;;;;;6.30;5.90;;;;;;;12.10;100.00;100561.63;5026468;28;20260;-74
2021/08/28 00:29:18;;;;;;;6.77;6.27;;;;;;;12.08;100.00;100558.19;5025995;28;20256;-76
2021/08/28 00:31:44;;;;;;;7.63;7.03;;;;;;;12.03;100.00;100556.56;5025978;28;20660;-77
2021/08/28 00:34:11;;;;;;;6.73;6.17;;;;;;;12.02;100.00;100541.78;5025380;28;20352;-76
2021/08/28 00:36:37;;;;;;;7.63;7.00;;;;;;;11.99;100.00;100539.22;5031146;28;20226;-77
2021/08/28 00:39:06;;;;;;;6.67;6.17;;;;;;;12.02;100.00;100539.16;5039489;28;20272;-77
2021/08/28 00:41:33;;;;;;;6.77;6.27;;;;;;;11.99;100.00;100537.47;5034257;28;20274;-75
2021/08/28 00:43:59;;;;;;;7.33;6.70;;;;;;;12.03;100.00;100544.38;5029291;28;20220;-75
2021/08/28 00:46:25;;;;;;;8.10;6.70;;;;;;;12.04;100.00;100542.59;5025832;28;20203;-77
2021/08/28 00:48:52;;;;;;;8.50;7.83;;;;;;;12.08;100.00;100537.25;5024788;28;20214;-77
2021/08/28 00:51:18;;;;;;;7.13;6.63;;;;;;;12.05;100.00;100539.06;5027550;28;20720;-76
2021/08/28 00:53:46;;;;;;;6.93;5.90;;;;;;;12.00;100.00;100544.41;5027879;28;20263;-77
2021/08/28 00:56:14;;;;;;;6.63;6.03;;;;;;;12.00;100.00;100544.41;5034232;28;20226;-77
2021/08/28 00:58:41;;;;;;;6.73;5.90;;;;;;;12.00;100.00;100544.41;5030892;28;20268;-76
2021/08/28 01:01:12;;;;;;;6.73;6.33;;;;;;;11.95;100.00;100533.19;5028789;28;20229;-75
2021/08/28 01:03:44;;;;;;;6.57;6.17;;;;;;;11.89;100.00;100534.22;5033593;28;20206;-76
2021/08/28 01:06:18;;;;;;;8.00;7.30;;;;;;;11.88;100.00;100526.38;5032937;28;20394;-77
2021/08/28 01:08:47;;;;;;;7.60;7.00;;;;;;;11.89;100.00;100525.50;5030264;28;20226;-77
2021/08/28 01:11:22;;;;;;;7.03;6.53;;;;;;;11.89;100.00;100530.72;5026551;28;20762;-75
2021/08/28 01:13:54;;;;;;;6.53;6.13;;;;;;;11.94;100.00;100534.09;5025151;28;20284;-79
2021/08/28 01:16:22;;;;;;;6.57;6.00;;;;;;;11.94;100.00;100530.63;5025789;28;20277;-77
2021/08/28 01:18:51;;;;;;;7.17;6.57;;;;;;;11.91;100.00;100535.03;5026008;28;20211;-78
2021/08/28 01:21:24;;;;;;;7.50;6.90;;;;;;;11.93;100.00;100532.38;5027093;28;20724;-78
2021/08/28 01:23:52;;;;;;;7.13;6.63;;;;;;;11.95;100.00;100530.56;5026230;28;20240;-78
2021/08/28 01:26:23;;;;;;;7.00;6.53;;;;;;;11.95;100.00;100530.56;5027103;28;20219;-78
2021/08/28 01:28:54;;;;;;;6.77;6.27;;;;;;;12.01;100.00;100530.47;5026137;28;20756;-78
2021/08/28 01:31:23;;;;;;;7.77;7.27;;;;;;;11.99;100.00;100529.63;5024795;28;20289;-78
2021/08/28 01:33:51;;;;;;;8.20;7.60;;;;;;;12.00;100.00;100530.47;5025112;28;20234;-78
2021/08/28 01:36:18;;;;;;;7.73;7.13;;;;;;;12.00;100.00;100535.72;5024277;28;20788;-78
2021/08/28 01:38:46;;;;;;;8.30;7.47;;;;;;;11.99;100.00;100529.63;5024969;28;20311;-79
2021/08/28 01:41:12;;;;;;;7.70;7.20;;;;;;;12.01;100.00;100535.69;5023977;28;20226;-75
2021/08/28 01:43:39;;;;;;;8.53;7.93;;;;;;;12.01;100.00;100538.31;5023628;28;20273;-78
2021/08/28 01:46:06;;;;;;;9.17;8.47;;;;;;;11.99;100.00;100540.09;5024470;28;20701;-76
2021/08/28 01:48:34;;;;;;;9.80;9.03;;;;;;;12.00;100.00;100538.34;5025555;28;20852;-77
2021/08/28 01:51:01;;;;;;;9.90;9.10;;;;;;;11.99;100.00;100537.47;5024083;28;20638;-76
2021/08/28 01:53:27;;;;;;;9.87;9.07;;;;;;;12.01;100.00;100543.53;5024207;28;20637;-77
2021/08/28 01:55:54;;;;;;;10.10;9.30;;;;;;;12.03;100.00;100544.38;5023556;28;20822;-77
2021/08/28 01:58:21;;;;;;;10.33;9.53;;;;;;;12.07;100.00;100547.75;5024023;28;20818;-77
2021/08/28 02:00:47;;;;;;;10.80;9.83;;;;;;;12.10;100.00;100551.16;5023886;28;20262;-78
2021/08/28 02:03:14;;;;;;;10.00;9.30;;;;;;;12.14;100.00;100541.47;5023549;28;20248;-76
2021/08/28 02:05:48;;;;;;;11.93;11.03;;;;;;;12.11;100.00;100546.81;5022903;28;20270;-75
2021/08/28 02:08:22;;;;;;;12.13;11.07;;;;;;;12.19;100.00;100549.22;5023633;28;20211;-76
2021/08/28 02:10:54;;;;;;;10.53;9.83;;;;;;;12.20;100.00;100543.09;5023978;28;20229;-77
2021/08/28 02:13:27;;;;;;;12.30;11.40;;;;;;;12.19;100.00;100542.25;5026136;28;20218;-77
2021/08/28 02:15:59;;;;;;;13.73;12.63;;;;;;;12.23;100.00;100549.13;5024038;28;20225;-78
2021/08/28 02:18:31;;;;;;;12.93;12.03;;;;;;;12.20;100.00;100549.19;5023476;28;20246;-77
2021/08/28 02:21:02;;;;;;;13.33;12.33;;;;;;;12.18;100.00;100542.28;5023703;28;20311;-75
2021/08/28 02:23:33;;;;;;;13.53;12.43;;;;;;;12.21;100.00;100539.56;5023506;28;20208;-75
2021/08/28 02:26:07;;;;;;;15.77;14.20;;;;;;;12.19;100.00;100542.25;5031387;28;20250;-77
2021/08/28 02:28:38;;;;;;;14.97;13.90;;;;;;;12.22;100.00;100536.06;5023848;28;20210;-74
2021/08/28 02:31:06;;;;;;;15.13;13.80;;;;;;;12.22;100.00;100536.91;5022798;28;20262;-77
2021/08/28 02:33:35;;;;;;;14.60;13.50;;;;;;;12.37;100.00;100540.06;5022905;28;20215;-76
2021/08/28 02:36:03;;;;;;;13.50;12.30;;;;;;;12.43;100.00;100538.16;5023003;28;20748;-77
2021/08/28 02:38:31;;;;;;;12.93;11.83;;;;;;;12.49;100.00;100540.63;5023389;28;20233;-78
2021/08/28 02:41:00;;;;;;;15.03;13.93;;;;;;;12.54;100.00;100540.50;5023224;28;20226;-77
2021/08/28 02:43:28;;;;;;;14.13;12.83;;;;;;;12.54;100.00;100540.50;5022477;28;20280;-77
2021/08/28 02:45:55;;;;;;;14.20;13.10;;;;;;;12.56;100.00;100540.47;5030188;28;20627;-77
2021/08/28 02:48:24;;;;;;;15.40;14.20;;;;;;;12.50;100.00;100539.72;5022619;28;21121;-77
2021/08/28 02:50:53;;;;;;;14.03;13.03;;;;;;;12.37;100.00;100542.66;5023341;28;20279;-74
2021/08/28 02:53:24;;;;;;;17.20;15.80;;;;;;;12.27;100.00;100540.31;5023070;28;20265;-77
2021/08/28 02:55:52;;;;;;;18.30;16.70;;;;;;;12.21;100.00;100534.34;5023536;28;20233;-74
2021/08/28 02:58:20;;;;;;;18.10;16.70;;;;;;;12.23;100.00;100533.41;5031030;28;20210;-77
2021/08/28 03:00:46;;;;;;;18.57;16.87;;;;;;;12.22;100.00;100529.06;5023169;28;20238;-77
2021/08/28 03:03:14;;;;;;;19.10;17.30;;;;;;;12.24;100.00;100529.03;5022795;28;20291;-77
2021/08/28 03:05:44;;;;;;;18.53;16.97;;;;;;;12.20;100.00;100528.25;5023024;28;20566;-76
2021/08/28 03:08:11;;;;;;;20.13;18.40;;;;;;;12.23;100.00;100529.91;5022711;28;20212;-74
2021/08/28 03:10:39;;;;;;;18.70;16.93;;;;;;;12.30;100.00;100534.97;5022760;28;20232;-76
2021/08/28 03:13:05;;;;;;;19.33;17.60;;;;;;;12.33;100.00;100536.69;5022832;28;20657;-77
2021/08/28 03:15:32;;;;;;;19.23;17.60;;;;;;;12.30;100.00;100539.34;5025336;28;20238;-77
2021/08/28 03:17:59;;;;;;;20.20;18.30;;;;;;;12.27;100.00;100535.06;5024405;28;20223;-75
2021/08/28 03:20:27;;;;;;;20.63;18.73;;;;;;;12.31;100.00;100534.09;5026761;28;20729;-76
2021/08/28 03:22:53;;;;;;;20.13;18.33;;;;;;;12.25;100.00;100530.75;5026766;28;20229;-77
2021/08/28 03:25:21;;;;;;;20.73;18.73;;;;;;;12.34;100.00;100532.28;5029781;28;20256;-76
2021/08/28 03:27:50;;;;;;;20.33;18.63;;;;;;;12.37;100.00;100534.81;5027255;28;20581;-74
2021/08/28 03:30:18;;;;;;;21.47;19.53;;;;;;;12.36;100.00;100531.34;5026285;28;20709;-75
2021/08/28 03:32:45;;;;;;;21.83;19.50;;;;;;;12.30;100.00;100541.97;5026657;28;20208;-77
2021/08/28 03:35:13;;;;;;;21.87;19.97;;;;;;;12.28;100.00;100531.53;5026266;28;20642;-76
2021/08/28 03:37:40;;;;;;;23.40;21.13;;;;;;;12.26;100.00;100533.31;5026472;28;20280;-76
2021/08/28 03:40:11;;;;;;;23.00;20.83;;;;;;;12.25;100.00;100534.25;5026429;28;20319;-73
2021/08/28 03:42:38;;;;;;;25.37;22.70;;;;;;;12.25;100.00;100525.50;5026093;28;20219;-77
2021/08/28 03:45:07;;;;;;;25.33;22.50;;;;;;;12.26;100.00;100532.47;5026466;28;20216;-74
2021/08/28 03:47:36;;;;;;;25.83;22.50;;;;;;;12.30;100.00;100524.50;5026238;28;20292;-76
2021/08/28 03:50:03;;;;;;;25.20;22.50;;;;;;;12.36;100.00;100530.50;5026339;28;20223;-77
2021/08/28 03:52:30;;;;;;;25.73;22.00;;;;;;;12.34;100.00;100529.69;5026126;28;20264;-76
2021/08/28 03:54:56;;;;;;;24.27;21.43;;;;;;;12.44;100.00;100528.53;5027349;28;20301;-77
2021/08/28 03:57:23;;;;;;;23.13;20.90;;;;;;;12.39;100.00;100531.28;5026482;28;20280;-76
2021/08/28 03:59:49;;;;;;;22.37;20.37;;;;;;;12.53;100.00;100530.94;5025960;28;20242;-76
2021/08/28 04:02:17;;;;;;;19.77;18.07;;;;;;;12.66;100.00;100534.94;5025625;28;20740;-74
2021/08/28 04:04:43;;;;;;;17.20;15.70;;;;;;;12.77;100.00;100533.81;5026313;28;20642;-75
2021/08/28 04:07:10;;;;;;;16.80;15.37;;;;;;;12.84;100.00;100530.13;5025777;28;20764;-76
2021/08/28 04:09:36;;;;;;;16.83;15.57;;;;;;;12.72;100.00;100539.16;5027334;28;20704;-77
2021/08/28 04:12:03;;;;;;;16.90;15.37;;;;;;;12.81;100.00;100538.94;5026250;28;20584;-74
2021/08/28 04:14:29;;;;;;;14.57;13.57;;;;;;;12.95;100.00;100549.03;5025906;28;20775;-76
2021/08/28 04:16:55;;;;;;;14.83;13.63;;;;;;;13.02;100.00;100553.22;5026023;28;20282;-77
2021/08/28 04:19:23;;;;;;;11.90;11.03;;;;;;;13.00;100.00;100548.91;5030552;28;20279;-76
2021/08/28 04:21:49;;;;;;;11.13;10.33;;;;;;;13.07;100.00;100559.19;5026055;28;20289;-74
2021/08/28 04:24:16;;;;;;;11.70;10.80;;;;;;;13.13;100.00;100570.41;5026753;28;20286;-77
2021/08/28 04:26:42;;;;;;;10.67;9.93;;;;;;;13.18;100.00;100573.75;5026061;28;20206;-74
2021/08/28 04:29:08;;;;;;;9.10;8.50;;;;;;;13.24;100.00;100590.19;5024928;28;20635;-76
2021/08/28 04:31:35;;;;;;;10.53;9.80;;;;;;;13.21;100.00;100599.88;5025264;28;20784;-76
2021/08/28 04:34:01;;;;;;;9.10;8.50;;;;;;;13.21;100.00;100600.75;5024816;28;20206;-74
2021/08/28 04:36:29;;;;;;;8.63;8.03;;;;;;;13.03;100.00;100622.22;5025531;28;20215;-77
2021/08/28 04:38:55;;;;;;;8.57;8.07;;;;;;;12.85;100.00;100631.41;5028211;28;20269;-76
2021/08/28 04:41:21;;;;;;;8.03;7.50;;;;;;;12.93;100.00;100631.22;5025408;28;20325;-76
2021/08/28 04:43:48;;;;;;;8.47;7.87;;;;;;;13.00;100.00;100619.66;5024770;28;20702;-77
2021/08/28 04:46:14;;;;;;;9.27;8.60;;;;;;;12.99;100.00;100621.41;5024984;28;20293;-77
2021/08/28 04:48:41;;;;;;;8.80;8.20;;;;;;;13.10;100.00;100624.63;5024871;28;20207;-76
2021/08/28 04:51:07;;;;;;;9.10;8.30;;;;;;;13.17;100.00;100630.56;5025638;28;20289;-76
2021/08/28 04:53:35;;;;;;;8.50;7.70;;;;;;;13.22;100.00;100633.94;5025711;28;20240;-74
2021/08/28 04:56:01;;;;;;;9.27;8.47;;;;;;;13.22;100.00;100643.53;5025010;28;20208;-74
2021/08/28 04:58:27;;;;;;;9.43;8.73;;;;;;;13.18;100.00;100662.88;5024925;28;20232;-78
2021/08/28 05:00:54;;;;;;;9.77;8.97;;;;;;;13.04;100.00;100660.59;5024729;28;20229;-76
2021/08/28 05:03:20;;;;;;;11.13;10.40;;;;;;;12.93;100.00;100653.03;5024669;28;20257;-74
2021/08/28 05:05:46;;;;;;;11.67;10.73;;;;;;;12.89;100.00;100638.28;5024821;28;20307;-77
2021/08/28 05:08:13;;;;;;;12.13;11.03;;;;;;;12.89;100.00;100627.81;5029142;28;20211;-77
2021/08/28 05:10:41;;;;;;;12.93;12.03;;;;;;;12.99;100.00;100625.81;5024501;28;21172;-78
2021/08/28 05:13:07;;;;;;;12.77;11.77;;;;;;;13.07;100.00;100623.84;5024548;28;20209;-76
2021/08/28 05:15:33;;;;;;;12.77;11.87;;;;;;;13.17;100.00;100625.31;5024950;28;20280;-76
2021/08/28 05:18:00;;;;;;;12.70;11.70;;;;;;;13.18;100.00;100637.53;5024115;28;20316;-75
2021/08/28 05:20:26;;;;;;;13.00;12.00;;;;;;;13.08;100.00;100636.91;5024869;28;20541;-77
2021/08/28 05:22:52;;;;;;;12.30;11.37;;;;;;;12.98;100.00;100630.16;5024452;28;20215;-77
2021/08/28 05:25:19;;;;;;;12.60;11.67;;;;;;;12.85;100.00;100613.06;5025812;28;20208;-76
2021/08/28 05:27:47;;;;;;;12.80;11.80;;;;;;;12.86;100.00;100599.06;5025220;28;20207;-77
2021/08/28 05:30:13;;;;;;;13.93;12.67;;;;;;;12.76;100.00;100592.31;5024135;28;20238;-76
2021/08/28 05:32:40;;;;;;;15.23;13.93;;;;;;;12.72;100.00;100583.69;5024189;28;20235;-77
2021/08/28 05:35:08;;;;;;;16.03;14.63;;;;;;;12.74;100.00;100581.88;5030942;28;20207;-74
2021/08/28 05:37:34;;;;;;;14.70;13.50;;;;;;;12.75;100.00;100582.78;5024625;28;20651;-77
2021/08/28 05:40:00;;;;;;;16.37;15.03;;;;;;;12.76;100.00;100593.19;5023989;28;21199;-77
2021/08/28 05:42:27;;;;;;;16.43;14.83;;;;;;;12.73;100.00;100592.44;5025377;28;20639;-75
2021/08/28 05:44:54;;;;;;;16.90;15.50;;;;;;;12.73;100.00;100584.56;5024454;28;20699;-78
2021/08/28 05:47:21;;;;;;;17.17;15.60;;;;;;;12.84;100.00;100577.28;5025336;28;20207;-77
2021/08/28 05:49:47;;;;;;;18.50;16.90;;;;;;;12.72;100.00;100581.06;5025771;28;20273;-74
2021/08/28 05:52:13;;;;;;;16.77;15.37;;;;;;;12.73;100.00;100581.94;5024272;28;20203;-76
2021/08/28 05:54:40;;;;;;;16.40;15.00;;;;;;;12.77;100.00;100580.97;5025629;28;20210;-77
2021/08/28 05:57:06;;;;;;;13.50;12.40;;;;;;;12.74;100.00;100575.78;5024086;28;20718;-75
2021/08/28 05:59:32;;;;;;;12.70;11.70;;;;;;;12.86;100.00;100580.72;5024546;28;20260;-77
2021/08/28 06:02:00;;;;;;;13.83;12.70;;;;;;;12.86;100.00;100588.56;5022830;28;21213;-77
2021/08/28 06:04:26;;;;;;;13.80;12.70;;;;;;;12.81;100.00;100582.59;5024108;28;20207;-74
2021/08/28 06:06:53;;;;;;;14.27;13.07;;;;;;;12.90;100.00;100595.44;5027198;28;20276;-78
2021/08/28 06:09:19;;;;;;;12.90;12.00;;;;;;;12.96;100.00;100590.03;5028419;28;20207;-76
2021/08/28 06:11:46;;;;;;;13.67;12.47;;;;;;;13.02;100.00;100607.38;5032248;28;20226;-77
2021/08/28 06:14:12;;;;;;;13.70;12.63;;;;;;;13.10;100.00;100613.25;5027438;28;20211;-79
2021/08/28 06:16:38;;;;;;;13.43;12.43;;;;;;;13.10;100.00;100623.75;5032882;28;20240;-79
2021/08/28 06:19:06;;;;;;;13.13;12.13;;;;;;;12.96;100.00;100629.34;5033362;28;20247;-76
2021/08/28 06:21:33;;;;;;;14.10;13.00;;;;;;;12.97;100.00;100620.59;5030382;28;20234;-78
2021/08/28 06:24:00;;;;;;;14.53;13.40;;;;;;;12.89;100.00;100625.19;5030564;28;20208;-78
2021/08/28 06:26:27;;;;;;;15.13;13.93;;;;;;;12.92;100.00;100619.84;5031722;28;20207;-77
2021/08/28 06:28:53;;;;;;;15.10;13.90;;;;;;;13.04;100.00;100611.69;5028910;28;20954;-77
2021/08/28 06:31:19;;;;;;;15.97;14.67;;;;;;;13.07;100.00;100614.22;5029698;28;20650;-80
2021/08/28 06:33:46;;;;;;;15.27;14.00;;;;;;;13.14;100.00;100607.06;5035452;28;20202;-79
2021/08/28 06:36:14;;;;;;;15.10;13.90;;;;;;;13.16;100.00;100613.13;5029672;28;20218;-77
2021/08/28 06:38:40;;;;;;;15.67;14.17;;;;;;;13.18;100.00;100615.69;5025390;28;20292;-77
2021/08/28 06:41:06;;;;;;;15.13;13.83;;;;;;;13.32;100.00;100626.72;5028378;28;20230;-80
2021/08/28 06:43:33;;;;;;;14.00;12.87;;;;;;;13.42;100.00;100641.28;5027881;28;20218;-78
2021/08/28 06:45:59;;;;;;;13.63;12.47;;;;;;;13.59;100.00;100653.06;5027188;28;20207;-78
2021/08/28 06:48:26;;;;;;;11.97;11.07;;;;;;;13.63;100.00;100666.03;5029021;28;20225;-80
2021/08/28 06:50:52;;;;;;;12.97;11.90;;;;;;;13.55;100.00;100680.28;5033891;28;20246;-80
2021/08/28 06:53:20;;;;;;;12.30;11.37;;;;;;;13.53;100.00;100701.28;5032193;28;20202;-79
2021/08/28 06:55:47;;;;;;;13.03;12.03;;;;;;;13.58;100.00;100690.69;5033598;28;20206;-78
2021/08/28 06:58:13;;;;;;;12.47;11.47;;;;;;;13.67;100.00;100680.78;5024476;28;20235;-78
2021/08/28 07:00:39;;;;;;;11.63;10.73;;;;;;;13.65;100.00;100710.59;5025600;28;20224;-78
2021/08/28 07:03:06;;;;;;;12.20;11.30;;;;;;;13.66;100.00;100728.06;5024485;28;20207;-77
2021/08/28 07:05:32;;;;;;;11.87;10.97;;;;;;;13.73;100.00;100728.75;5031752;28;20273;-78
2021/08/28 07:07:58;;;;;;;10.83;10.03;;;;;;;13.83;100.00;100731.06;5026602;28;20203;-81
2021/08/28 07:10:26;;;;;;;11.30;10.40;;;;;;;13.84;100.00;100738.06;5028880;28;20223;-80
2021/08/28 07:12:52;;;;;;;10.40;9.60;;;;;;;13.96;100.00;100749.13;5027527;28;20215;-82
2021/08/28 07:15:19;;;;;;;10.30;9.60;;;;;;;13.95;99.54;100782.34;5026658;28;20212;-78
2021/08/28 07:17:45;;;;;;;10.50;9.80;;;;;;;14.09;99.65;100779.34;5031252;28;20227;-79
2021/08/28 07:20:13;;;;;;;10.70;10.00;;;;;;;13.88;98.70;100805.28;5030715;28;20248;-79
2021/08/28 07:22:39;;;;;;;10.63;9.83;;;;;;;13.90;98.75;100819.22;5032656;28;20740;-78
2021/08/28 07:25:06;;;;;;;10.87;10.17;;;;;;;13.98;98.47;100818.19;5035887;28;20204;-79
2021/08/28 07:27:34;;;;;;;11.17;10.47;;;;;;;14.08;98.66;100803.91;5034473;28;20856;-78
2021/08/28 07:30:00;;;;;;;10.53;9.83;;;;;;;14.24;97.97;100813.06;5030862;28;20226;-78
2021/08/28 07:32:27;;;;;;;10.60;9.90;;;;;;;14.18;97.67;100828.97;5036481;28;20206;-78
2021/08/28 07:34:55;;;;;;;10.90;10.20;;;;;;;14.28;96.76;100847.97;5032864;28;20208;-77
2021/08/28 07:37:21;;;;;;;10.90;10.10;;;;;;;14.23;95.84;100879.63;5031083;28;20704;-77
2021/08/28 07:39:48;;;;;;;10.73;9.97;;;;;;;14.39;95.90;100871.31;5033017;28;20679;-77
2021/08/28 07:42:14;;;;;;;11.13;10.33;;;;;;;14.43;95.79;100873.81;5034393;28;20213;-78
2021/08/28 07:44:42;;;;;;;11.00;10.20;;;;;;;14.64;96.42;100855.75;5023204;28;20220;-79
2021/08/28 07:47:08;;;;;;;10.47;9.77;;;;;;;14.50;95.95;100870.09;5025128;28;20219;-77
2021/08/28 07:49:36;;;;;;;10.03;9.33;;;;;;;14.73;96.10;100859.84;5031429;28;20208;-79
2021/08/28 07:52:02;;;;;;;9.90;9.20;;;;;;;14.95;96.36;100839.94;5026315;28;20313;-79
2021/08/28 07:54:29;;;;;;;9.10;8.37;;;;;;;14.67;92.73;100937.13;5026353;28;21040;-77
2021/08/28 07:56:55;;;;;;;8.87;8.27;;;;;;;14.70;91.80;100974.66;5028487;28;20205;-77
2021/08/28 07:59:21;;;;;;;8.43;7.83;;;;;;;14.74;91.03;101011.38;5033684;28;21184;-78
2021/08/28 08:01:49;;;;;;;8.83;8.23;;;;;;;15.06;91.09;101011.38;5024261;28;20781;-75
2021/08/28 08:04:16;;;;;;;9.50;8.90;;;;;;;15.36;91.89;100974.56;5022973;28;20206;-76
2021/08/28 08:06:42;;;;;;;9.60;8.80;;;;;;;15.14;91.80;100973.44;5027940;28;20204;-77
2021/08/28 08:09:08;;;;;;;7.87;7.40;;;;;;;15.09;90.94;100976.22;5027711;28;20203;-77
2021/08/28 08:11:35;;;;;;;8.10;7.60;;;;;;;15.20;90.22;101024.13;5028021;28;20232;-77
2021/08/28 08:14:01;;;;;;;8.60;8.00;;;;;;;15.26;91.26;100978.34;5025800;28;20207;-78
2021/08/28 08:16:27;;;;;;;8.60;8.00;;;;;;;15.19;90.52;100996.09;5025326;28;20211;-78
2021/08/28 08:18:55;;;;;;;8.50;8.00;;;;;;;15.22;90.68;100988.13;5026956;28;20317;-78
2021/08/28 08:21:22;;;;;;;7.70;7.20;;;;;;;14.99;90.44;100977.41;5030085;28;20673;-79
2021/08/28 08:23:48;;;;;;;8.20;7.70;;;;;;;14.88;92.02;100946.16;5026539;28;20263;-78
2021/08/28 08:26:15;;;;;;;7.90;7.43;;;;;;;14.97;91.56;100955.56;5025566;28;20238;-75
2021/08/28 08:28:41;;;;;;;8.20;7.60;;;;;;;14.96;91.79;100956.44;5032094;28;20208;-77
2021/08/28 08:31:07;;;;;;;9.07;8.47;;;;;;;15.08;91.20;100942.94;5025445;28;20227;-77
2021/08/28 08:33:34;;;;;;;9.97;9.17;;;;;;;15.18;91.07;100957.56;5027598;28;20270;-75
2021/08/28 08:36:01;;;;;;;10.50;9.80;;;;;;;15.30;91.68;100945.78;5025288;28;20207;-78
2021/08/28 08:38:28;;;;;;;9.40;8.80;;;;;;;15.38;93.84;100898.19;5029191;28;20231;-77
2021/08/28 08:40:55;;;;;;;13.03;8.53;;;;;;;15.31;90.98;100972.97;5031272;28;20281;-77
2021/08/28 08:43:22;;;;;;;7.70;7.20;;;;;;;15.08;89.65;101011.31;5024891;28;20219;-78
2021/08/28 08:45:49;;;;;;;9.10;8.50;;;;;;;15.02;90.69;100988.66;5025902;28;20208;-76
2021/08/28 08:48:17;;;;;;;8.83;8.23;;;;;;;15.07;89.99;100978.91;5032939;28;20238;-77
2021/08/28 08:50:44;;;;;;;9.13;8.53;;;;;;;15.06;91.20;100958.78;5027302;28;20314;-78
2021/08/28 08:53:15;;;;;;;9.00;8.40;;;;;;;14.95;91.56;100939.81;5024518;28;20243;-78
2021/08/28 08:55:41;;;;;;;8.13;7.53;;;;;;;14.93;92.71;100901.34;5027116;28;20675;-78
2021/08/28 08:58:08;;;;;;;8.67;8.07;;;;;;;15.00;92.05;100914.25;5025205;28;20227;-78
2021/08/28 09:00:35;;;;;;;8.43;7.83;;;;;;;15.24;92.13;100915.28;5026454;28;20235;-78
2021/08/28 09:03:01;;;;;;;7.17;6.67;;;;;;;15.15;90.03;100975.19;5024531;28;20241;-75
2021/08/28 09:05:28;;;;;;;6.97;6.47;;;;;;;15.19;90.08;101003.97;5031987;28;20662;-78
2021/08/28 09:07:54;;;;;;;8.60;8.00;;;;;;;15.26;90.34;100996.75;5025383;28;20206;-77
2021/08/28 09:10:22;;;;;;;7.53;7.03;;;;;;;15.25;90.30;100995.06;5030232;28;20235;-74
2021/08/28 09:12:48;;;;;;;8.03;7.53;;;;;;;15.31;90.49;100992.25;5024532;28;20733;-77
2021/08/28 09:15:15;;;;;;;8.83;8.17;;;;;;;15.46;91.13;100972.47;5030114;28;20286;-77
2021/08/28 09:17:43;;;;;;;10.73;9.93;;;;;;;15.28;90.84;100961.63;5027444;28;20682;-75
2021/08/28 09:20:21;;;;;;;9.73;9.13;;;;;;;15.29;91.00;100962.50;5025131;28;20260;-74
2021/08/28 09:22:48;;;;;;;8.77;8.17;;;;;;;15.23;90.72;100966.16;5024372;28;20693;-77
2021/08/28 09:25:24;;;;;;;7.87;7.37;;;;;;;15.25;89.46;101011.69;5031766;28;20217;-78
2021/08/28 09:27:51;;;;;;;8.27;7.73;;;;;;;15.39;89.64;101013.06;5025293;28;20276;-76
2021/08/28 09:30:21;;;;;;;6.70;6.23;;;;;;;15.34;89.35;101028.09;5024445;28;20810;-77
2021/08/28 09:32:49;;;;;;;15.70;14.67;;;;;;;15.49;89.54;101015.34;5030557;28;20222;-76
2021/08/28 09:35:15;;;;;;;8.20;7.60;;;;;;;15.47;89.14;101018.94;5038259;28;20266;-76
2021/08/28 09:37:43;;;;;;;7.83;7.33;;;;;;;15.32;89.37;101020.28;5033400;28;20232;-75
2021/08/28 09:40:10;;;;;;;6.97;6.47;;;;;;;15.37;89.31;101005.19;5036137;28;20723;-75
2021/08/28 09:42:39;;;;;;;6.93;6.53;;;;;;;15.28;88.44;101044.91;5035718;28;20344;-75
2021/08/28 09:45:09;;;;;;;7.93;7.43;;;;;;;15.48;89.11;101025.94;5031997;28;20211;-75
2021/08/28 09:47:36;;;;;;;7.23;6.73;;;;;;;15.64;88.66;101026.34;5033803;28;20211;-76
2021/08/28 09:50:02;;;;;;;6.53;6.13;;;;;;;15.65;87.33;101071.00;5037430;28;20281;-75
2021/08/28 09:52:29;;;;;;;22.53;21.07;;;;;;;15.55;87.58;101073.97;5033511;28;20772;-76
2021/08/28 09:54:56;;;;;;;7.33;6.93;;;;;;;15.74;87.33;101074.31;5036127;28;20693;-76
2021/08/28 09:57:28;;;;;;;7.03;6.53;;;;;;;15.52;87.09;101093.34;5036214;28;20209;-76
2021/08/28 09:59:57;;;;;;;5.73;5.33;;;;;;;15.61;86.79;101089.59;5029344;28;20233;-76
2021/08/28 10:02:23;;;;;;;7.10;6.60;;;;;;;15.42;86.85;101090.13;5030996;28;20209;-75
2021/08/28 10:04:52;;;;;;;5.93;5.57;;;;;;;15.51;86.58;101083.72;5036636;28;20211;-76
2021/08/28 10:07:20;;;;;;;6.90;6.40;;;;;;;15.43;87.13;101080.47;5029228;28;20430;-77
2021/08/28 10:09:48;;;;;;;6.87;6.40;;;;;;;15.43;87.92;101041.84;5034371;28;20210;-76
2021/08/28 10:12:18;;;;;;;9.60;9.00;;;;;;;15.44;88.05;101034.81;5032395;28;20676;-77
2021/08/28 10:14:45;;;;;;;9.33;8.73;;;;;;;15.46;87.49;101039.13;5033338;28;20210;-76
2021/08/28 10:17:13;;;;;;;8.60;8.10;;;;;;;15.59;87.72;101033.50;5027743;28;20244;-76
2021/08/28 10:19:41;;;;;;;7.10;6.70;;;;;;;15.68;87.59;101036.72;5031861;28;20232;-75
2021/08/28 10:22:10;;;;;;;6.37;5.97;;;;;;;15.83;86.85;101074.03;5033610;28;20212;-77
2021/08/28 10:24:38;;;;;;;7.20;6.70;;;;;;;15.69;86.85;101090.22;5033860;28;20241;-76
2021/08/28 10:27:05;;;;;;;13.97;13.07;;;;;;;15.62;86.24;101093.97;5033155;28;20204;-76
2021/08/28 10:29:31;;;;;;;20.63;19.30;;;;;;;15.54;86.63;101091.53;5034305;28;20204;-77
2021/08/28 10:31:58;;;;;;;6.90;6.27;;;;;;;15.41;87.05;101069.13;5033614;28;20238;-77
2021/08/28 10:34:25;;;;;;;7.67;7.17;;;;;;;15.34;89.40;100965.84;5033224;28;20216;-78
2021/08/28 10:36:52;;;;;;;6.63;6.13;;;;;;;15.33;89.97;100945.69;5032823;28;20698;-77
2021/08/28 10:39:20;;;;;;;5.83;5.43;;;;;;;15.37;90.90;100899.97;5032987;28;20648;-76
2021/08/28 10:41:47;;;;;;;6.43;5.93;;;;;;;15.54;91.14;100890.69;5035138;28;20223;-76
2021/08/28 10:44:13;;;;;;;5.57;5.17;;;;;;;15.61;90.33;100916.75;5032913;28;20259;-77
2021/08/28 10:46:42;;;;;;;5.70;5.30;;;;;;;15.57;90.16;100935.31;5034577;28;20211;-78
2021/08/28 10:49:11;;;;;;;5.50;5.10;;;;;;;15.09;91.34;100907.88;5034633;28;20732;-76
2021/08/28 10:51:41;;;;;;;6.67;6.27;;;;;;;14.70;94.57;100798.59;5035621;28;20274;-77
2021/08/28 10:54:09;;;;;;;7.23;6.73;;;;;;;14.67;96.65;100719.88;5031558;28;20241;-78
2021/08/28 10:56:56;;;;;;;7.03;6.63;;;;;;;14.56;97.44;100690.47;5034896;28;20258;-77
2021/08/28 10:59:24;;;;;;;7.50;7.00;;;;;;;14.63;97.72;100683.25;5037236;28;20314;-76
2021/08/28 11:01:58;;;;;;;7.77;7.27;;;;;;;14.73;98.55;100660.16;5038430;28;20236;-78
2021/08/28 11:04:33;;;;;;;7.70;7.20;;;;;;;14.53;98.95;100666.00;5032757;28;20720;-77
2021/08/28 11:07:22;;;;;;;7.50;7.10;;;;;;;14.40;99.74;100644.53;5035975;28;20273;-76
2021/08/28 11:10:07;;;;;;;7.33;6.83;;;;;;;14.58;99.91;100641.34;5034966;28;20218;-78
2021/08/28 11:13:01;;;;;;;10.23;9.53;;;;;;;14.54;100.00;100650.22;5026216;28;20276;-77
2021/08/28 11:15:44;;;;;;;10.23;9.63;;;;;;;14.67;99.83;100646.31;5016784;28;20212;-77